Time;durP1;ratioP1;P1;durP2;ratioP2;P2;SDS_P1;SDS_P2;PMS_P1;PMS_P2;Temp;Humidity;BMP_temperature;BMP_pressure;BME280_temperature;BME280_humidity;BME280_pressure;Samples;Min_cycle;Max_cycle;Signal;HPM_P1;HPM_P2
2021/07/18 00:00:40;;;;;;;6.10;3.45;;;;;;;16.95;69.74;101124.94;10427172;28;20197;-72
2021/07/18 00:05:45;;;;;;;4.15;3.25;;;;;;;16.76;70.52;101124.97;10426562;28;20225;-72
2021/07/18 00:10:48;;;;;;;5.85;2.97;;;;;;;16.55;71.56;101131.44;10426816;28;20208;-72
2021/07/18 00:15:51;;;;;;;9.38;3.95;;;;;;;16.43;72.06;101126.31;10426211;28;20213;-72
2021/07/18 00:20:55;;;;;;;7.13;3.75;;;;;;;16.44;72.35;101123.47;10426572;28;20565;-72
2021/07/18 00:25:58;;;;;;;8.15;4.10;;;;;;;16.36;72.56;101128.75;10333898;23;20231;-75
2021/07/18 00:31:01;;;;;;;8.13;4.47;;;;;;;16.25;72.95;101120.75;10300738;28;20203;-74
2021/07/18 00:36:06;;;;;;;6.78;4.25;;;;;;;16.21;73.95;101122.88;10299683;28;20329;-75
2021/07/18 00:41:08;;;;;;;8.38;4.20;;;;;;;16.22;73.43;101121.03;10300280;28;20199;-75
2021/07/18 00:46:12;;;;;;;9.27;4.20;;;;;;;16.07;73.44;101117.88;10302896;28;20592;-74
2021/07/18 00:51:16;;;;;;;9.52;4.65;;;;;;;15.93;74.60;101121.88;10307113;28;20216;-75
2021/07/18 00:56:19;;;;;;;8.35;4.90;;;;;;;15.89;75.06;101124.00;10310196;28;20208;-75
2021/07/18 01:01:22;;;;;;;6.38;4.35;;;;;;;15.94;75.24;101123.59;10310500;28;20200;-75
2021/07/18 01:06:27;;;;;;;8.25;4.70;;;;;;;15.93;75.27;101132.69;10309724;28;20303;-75
2021/07/18 01:11:30;;;;;;;13.48;4.85;;;;;;;15.79;75.98;101125.00;10309988;28;20215;-75
2021/07/18 01:16:33;;;;;;;9.43;5.13;;;;;;;15.75;76.21;101131.72;10309453;28;20188;-75
2021/07/18 01:21:39;;;;;;;11.13;5.40;;;;;;;15.74;76.46;101127.25;10309711;28;20192;-75
2021/07/18 01:26:44;;;;;;;9.52;5.85;;;;;;;15.86;76.12;101131.56;10309377;28;20198;-75
2021/07/18 01:31:47;;;;;;;9.27;5.25;;;;;;;15.77;76.37;101121.56;10309099;28;20231;-75
2021/07/18 01:36:51;;;;;;;12.30;5.53;;;;;;;15.58;76.83;101114.28;10309089;28;20621;-75
2021/07/18 01:41:57;;;;;;;12.68;6.68;;;;;;;15.51;77.42;101121.25;10309342;28;20204;-75
2021/07/18 01:47:01;;;;;;;11.32;6.50;;;;;;;15.51;77.57;101121.25;10307688;28;20220;-75
2021/07/18 01:52:04;;;;;;;14.32;6.90;;;;;;;15.52;77.85;101115.66;10308454;28;20722;-75
2021/07/18 01:57:11;;;;;;;11.55;5.90;;;;;;;15.50;77.72;101122.25;10308374;28;20200;-74
2021/07/18 02:02:15;;;;;;;11.20;6.30;;;;;;;15.37;77.50;101130.59;10307921;28;20624;-76
2021/07/18 02:07:18;;;;;;;14.05;7.13;;;;;;;15.23;78.47;101131.81;10307967;28;20654;-76
2021/07/18 02:12:23;;;;;;;12.23;6.82;;;;;;;15.30;78.04;101141.06;10307897;28;20224;-76
2021/07/18 02:17:26;;;;;;;12.93;6.72;;;;;;;15.19;78.46;101131.25;10306932;28;20202;-75
2021/07/18 02:22:41;;;;;;;16.98;7.43;;;;;;;15.15;78.24;101121.66;10307389;28;20220;-75
2021/07/18 02:27:47;;;;;;;11.35;6.93;;;;;;;15.14;78.57;101125.38;10307416;28;20200;-75
2021/07/18 02:32:51;;;;;;;12.93;7.55;;;;;;;15.03;78.79;101109.25;10309095;28;20865;-75
2021/07/18 02:37:54;;;;;;;13.65;7.80;;;;;;;15.09;78.50;101110.53;10308467;28;20214;-75
2021/07/18 02:42:58;;;;;;;12.63;7.03;;;;;;;15.00;78.60;101114.88;10307856;28;20246;-76
2021/07/18 02:48:01;;;;;;;13.43;6.65;;;;;;;14.85;78.60;101110.84;10308775;28;20199;-75
2021/07/18 02:53:04;;;;;;;15.13;6.90;;;;;;;14.80;78.74;101109.38;10314236;28;20232;-75
2021/07/18 02:58:08;;;;;;;12.95;6.70;;;;;;;14.65;79.11;101116.16;10318493;28;20188;-75
2021/07/18 03:03:11;;;;;;;10.90;6.35;;;;;;;14.66;79.58;101117.84;10312285;28;20221;-74
2021/07/18 03:08:14;;;;;;;11.27;6.75;;;;;;;14.64;79.18;101110.88;10306069;28;20203;-75
2021/07/18 03:13:18;;;;;;;11.82;6.68;;;;;;;14.67;79.36;101106.03;10304680;28;20239;-75
2021/07/18 03:18:21;;;;;;;11.40;6.28;;;;;;;14.53;79.23;101103.69;10305145;28;20196;-74
2021/07/18 03:23:24;;;;;;;15.05;6.78;;;;;;;14.41;79.70;101111.00;10305309;28;20579;-74
2021/07/18 03:28:29;;;;;;;14.10;6.53;;;;;;;14.45;79.74;101103.47;10305125;28;20291;-75
2021/07/18 03:33:31;;;;;;;14.52;6.13;;;;;;;14.47;79.64;101102.38;10315357;28;20239;-75
2021/07/18 03:38:34;;;;;;;15.60;7.20;;;;;;;14.40;80.16;101112.00;10304822;28;20219;-74
2021/07/18 03:43:39;;;;;;;14.23;7.45;;;;;;;14.46;80.50;101111.47;10304825;28;20208;-75
2021/07/18 03:48:42;;;;;;;14.60;8.82;;;;;;;14.40;80.64;101109.31;10302737;28;20204;-75
2021/07/18 03:53:45;;;;;;;13.85;7.70;;;;;;;14.31;80.55;101110.03;10304492;28;20689;-74
2021/07/18 03:58:50;;;;;;;16.23;8.90;;;;;;;14.45;80.34;101120.56;10302701;28;20218;-75
2021/07/18 04:03:53;;;;;;;14.43;8.15;;;;;;;14.42;79.71;101117.28;10304369;28;20212;-75
2021/07/18 04:08:56;;;;;;;16.15;8.63;;;;;;;14.59;79.69;101122.94;10302719;28;20203;-75
2021/07/18 04:14:00;;;;;;;15.90;9.02;;;;;;;14.60;79.54;101131.91;10330885;28;20219;-74
2021/07/18 04:19:03;;;;;;;16.67;8.68;;;;;;;14.56;79.97;101147.56;10344446;28;20660;-75
2021/07/18 04:24:06;;;;;;;22.77;9.52;;;;;;;14.60;79.94;101131.91;10348139;28;20223;-75
2021/07/18 04:29:10;;;;;;;19.40;9.43;;;;;;;14.40;81.13;101133.63;10342816;28;20286;-75
2021/07/18 04:34:13;;;;;;;14.80;8.68;;;;;;;14.56;81.07;101138.56;10343456;28;20229;-75
2021/07/18 04:39:16;;;;;;;18.00;9.50;;;;;;;14.97;79.96;101134.09;10346938;28;20198;-75
2021/07/18 04:44:21;;;;;;;15.57;9.40;;;;;;;15.10;78.91;101128.47;10348793;28;20223;-74
2021/07/18 04:49:24;;;;;;;20.52;9.48;;;;;;;15.15;79.21;101137.91;10350887;28;20549;-74
2021/07/18 04:54:27;;;;;;;22.00;10.35;;;;;;;15.03;79.03;101137.16;10350073;28;20215;-75
2021/07/18 04:59:31;;;;;;;22.10;10.57;;;;;;;15.21;78.59;101137.34;10350284;28;20727;-76
2021/07/18 05:04:34;;;;;;;20.63;11.07;;;;;;;15.45;78.08;101138.91;10349590;28;20278;-75
2021/07/18 05:09:37;;;;;;;19.77;10.07;;;;;;;15.37;77.96;101138.72;10350027;28;20637;-74
2021/07/18 05:14:42;;;;;;;15.77;9.27;;;;;;;15.50;77.57;101141.19;10349243;28;20214;-75
2021/07/18 05:19:45;;;;;;;19.50;9.93;;;;;;;15.60;78.00;101142.06;10349672;28;20196;-75
2021/07/18 05:24:48;;;;;;;16.73;9.25;;;;;;;15.70;77.36;101141.09;10349233;28;20688;-75
2021/07/18 05:29:52;;;;;;;19.02;9.48;;;;;;;15.76;77.01;101136.97;10349865;28;20278;-75
2021/07/18 05:34:55;;;;;;;15.35;9.40;;;;;;;15.89;76.64;101140.28;10348117;28;20227;-76
2021/07/18 05:39:58;;;;;;;17.10;9.57;;;;;;;15.93;76.77;101135.41;10350772;28;20570;-75
2021/07/18 05:45:03;;;;;;;16.30;8.68;;;;;;;15.95;77.13;101133.44;10348899;28;20231;-75
2021/07/18 05:50:08;;;;;;;16.75;9.88;;;;;;;16.25;77.02;101147.84;10350455;28;20187;-75
2021/07/18 05:55:12;;;;;;;18.17;9.27;;;;;;;16.42;75.03;101149.00;10349583;28;20247;-76
2021/07/18 06:00:17;;;;;;;19.27;8.80;;;;;;;16.54;75.19;101145.16;10348761;28;20225;-75
2021/07/18 06:05:20;;;;;;;18.13;8.23;;;;;;;16.86;74.74;101142.06;10348130;28;20215;-75
2021/07/18 06:10:23;;;;;;;17.10;8.70;;;;;;;16.76;73.96;101146.69;10349719;28;20191;-75
2021/07/18 06:15:27;;;;;;;14.10;8.07;;;;;;;16.90;73.95;101165.22;10349142;28;20223;-75
2021/07/18 06:20:30;;;;;;;12.80;7.72;;;;;;;17.00;73.55;101147.03;10353372;28;20249;-74
2021/07/18 06:25:33;;;;;;;8.20;5.38;;;;;;;17.70;73.44;101147.44;10350148;28;20243;-75
2021/07/18 06:30:38;;;;;;;17.08;7.00;;;;;;;18.24;70.37;101155.69;10349168;28;20204;-74
2021/07/18 06:35:41;;;;;;;8.70;5.50;;;;;;;18.09;68.91;101163.50;10348641;28;20215;-75
2021/07/18 06:40:44;;;;;;;9.18;6.32;;;;;;;18.33;68.51;101167.47;10348742;28;20199;-74
2021/07/18 06:45:49;;;;;;;10.70;6.55;;;;;;;18.43;66.84;101164.66;10348498;28;20211;-74
2021/07/18 06:50:52;;;;;;;9.23;5.57;;;;;;;18.43;67.03;101159.22;10348581;28;20196;-74
2021/07/18 06:55:55;;;;;;;9.35;6.07;;;;;;;18.31;66.80;101162.19;10348046;28;20695;-74
2021/07/18 07:00:59;;;;;;;8.95;5.13;;;;;;;18.41;67.38;101153.09;10348283;28;20653;-75
2021/07/18 07:06:03;;;;;;;9.98;5.70;;;;;;;18.90;66.37;101154.34;10347607;28;20243;-73
2021/07/18 07:11:06;;;;;;;13.07;5.65;;;;;;;19.64;64.38;101150.16;10348113;28;20192;-74
2021/07/18 07:16:10;;;;;;;7.40;5.28;;;;;;;19.41;63.46;101154.44;10347245;28;20219;-74
2021/07/18 07:21:15;;;;;;;7.32;4.97;;;;;;;19.54;62.70;101157.56;10347711;28;20676;-74
2021/07/18 07:26:18;;;;;;;6.93;4.38;;;;;;;19.00;65.03;101154.22;10347017;28;20265;-74
2021/07/18 07:31:22;;;;;;;6.40;3.30;;;;;;;19.58;62.40;101158.09;10347331;28;20195;-75
2021/07/18 07:36:26;;;;;;;5.18;3.30;;;;;;;20.44;60.50;101155.06;10346469;28;20644;-76
2021/07/18 07:41:28;;;;;;;4.75;3.10;;;;;;;21.09;58.04;101148.72;10346799;28;20187;-75
2021/07/18 07:46:33;;;;;;;5.43;3.28;;;;;;;21.64;55.87;101139.59;10346254;28;20218;-76
2021/07/18 07:51:37;;;;;;;4.80;3.03;;;;;;;21.55;55.22;101142.53;10346564;28;20738;-75
2021/07/18 07:56:39;;;;;;;4.78;2.83;;;;;;;21.38;56.26;101145.34;10346158;28;20592;-75
2021/07/18 08:01:44;;;;;;;5.07;2.80;;;;;;;22.25;54.35;101144.34;10353672;28;20671;-75
2021/07/18 08:06:47;;;;;;;4.32;3.40;;;;;;;21.28;57.13;101141.09;10353022;28;20183;-75
2021/07/18 08:11:50;;;;;;;5.72;2.92;;;;;;;21.12;57.48;101137.44;10353216;28;20633;-75
2021/07/18 08:16:54;;;;;;;4.43;3.00;;;;;;;20.99;58.56;101129.75;10356968;28;20700;-75
2021/07/18 08:21:57;;;;;;;3.42;2.60;;;;;;;20.89;57.27;101133.69;10353605;28;20691;-75
2021/07/18 08:27:00;;;;;;;6.15;3.55;;;;;;;21.08;56.60;101132.47;10352573;28;20205;-75
2021/07/18 08:32:06;;;;;;;7.10;2.60;;;;;;;20.83;56.56;101127.03;10352742;28;20262;-74
2021/07/18 08:37:10;;;;;;;4.95;2.65;;;;;;;21.52;55.47;101119.13;10356266;28;20243;-74
2021/07/18 08:42:15;;;;;;;4.68;2.63;;;;;;;23.04;52.64;101117.44;10355619;28;20215;-74
2021/07/18 08:47:20;;;;;;;3.83;2.45;;;;;;;24.30;49.03;101110.72;10354754;28;20199;-75
2021/07/18 08:52:24;;;;;;;4.28;2.28;;;;;;;24.01;48.32;101103.47;10356145;28;20211;-74
2021/07/18 08:57:27;;;;;;;3.97;2.15;;;;;;;24.31;48.02;101098.69;10351962;28;20227;-75
2021/07/18 09:02:31;;;;;;;2.92;2.25;;;;;;;24.10;46.89;101093.22;10351764;28;20219;-75
2021/07/18 09:07:43;;;;;;;5.07;2.40;;;;;;;23.46;50.39;101102.22;10351454;28;20194;-75
2021/07/18 09:13:01;;;;;;;4.72;2.60;;;;;;;23.41;52.38;101111.00;10350384;28;20290;-74
2021/07/18 09:18:10;;;;;;;7.00;2.65;;;;;;;25.11;47.86;101099.31;10350923;28;20699;-75
2021/07/18 09:23:16;;;;;;;5.13;3.25;;;;;;;24.47;48.68;101103.09;10350851;28;20246;-75
2021/07/18 09:28:21;;;;;;;2.30;2.10;;;;;;;23.97;50.32;101104.94;10350840;28;20172;-75
2021/07/18 09:33:28;;;;;;;3.67;2.20;;;;;;;23.72;49.71;101114.53;10350815;28;20562;-75
2021/07/18 09:38:31;;;;;;;4.95;2.50;;;;;;;23.94;48.27;101102.56;10350417;28;20221;-75
2021/07/18 09:43:34;;;;;;;5.32;2.63;;;;;;;25.62;46.24;101103.56;10354000;28;20295;-74
2021/07/18 09:48:40;;;;;;;3.10;2.80;;;;;;;24.64;49.46;101106.38;10352123;28;20254;-74
2021/07/18 09:53:44;;;;;;;5.63;2.58;;;;;;;24.36;47.98;101111.00;10350178;28;20222;-75
2021/07/18 09:58:53;;;;;;;6.13;2.65;;;;;;;25.36;46.17;101094.13;10349704;28;20195;-76
2021/07/18 10:03:58;;;;;;;4.38;2.30;;;;;;;25.98;44.76;101088.63;10350152;28;20283;-74
2021/07/18 10:09:04;;;;;;;4.32;2.65;;;;;;;24.88;46.27;101093.25;10349938;28;20199;-75
2021/07/18 10:14:07;;;;;;;4.80;2.42;;;;;;;25.77;45.57;101076.72;10353820;28;20208;-75
2021/07/18 10:19:12;;;;;;;2.90;2.13;;;;;;;25.51;45.85;101076.66;10349538;28;20191;-75
2021/07/18 10:24:17;;;;;;;3.25;2.20;;;;;;;26.63;42.95;101070.47;10349064;28;20215;-75
2021/07/18 10:29:20;;;;;;;3.40;2.10;;;;;;;25.74;43.70;101074.41;10349720;28;20687;-76
2021/07/18 10:34:29;;;;;;;3.63;2.28;;;;;;;25.31;44.80;101063.66;10347434;28;20590;-76
2021/07/18 10:39:35;;;;;;;3.90;2.45;;;;;;;25.63;44.57;101063.97;10349303;28;20197;-76
2021/07/18 10:44:43;;;;;;;3.53;2.40;;;;;;;27.49;41.45;101058.34;10348544;28;20211;-76
2021/07/18 10:49:55;;;;;;;3.00;2.35;;;;;;;26.88;41.59;101056.88;10349445;28;20266;-75
2021/07/18 10:54:58;;;;;;;3.60;2.42;;;;;;;26.08;43.43;101058.78;10348329;28;20227;-77
2021/07/18 11:00:23;;;;;;;3.38;2.30;;;;;;;28.01;39.70;101049.97;10348450;28;20187;-75
2021/07/18 11:05:38;;;;;;;3.97;2.30;;;;;;;29.02;38.74;101048.78;10347654;28;20693;-76
2021/07/18 11:10:52;;;;;;;2.60;2.30;;;;;;;28.14;40.07;101054.50;10348169;28;20191;-75
2021/07/18 11:15:55;;;;;;;2.42;2.10;;;;;;;26.81;40.55;101038.63;10347432;28;20215;-75
2021/07/18 11:21:00;;;;;;;4.40;2.60;;;;;;;26.99;42.12;101037.94;10347760;28;20637;-75
2021/07/18 11:26:16;;;;;;;3.00;2.47;;;;;;;28.05;40.36;101032.69;10348307;28;20742;-75
2021/07/18 11:31:22;;;;;;;2.92;2.40;;;;;;;27.36;40.00;101030.78;10348574;28;20195;-75
2021/07/18 11:37:00;;;;;;;3.22;2.33;;;;;;;27.22;42.77;101026.41;10348572;28;20666;-76
2021/07/18 11:42:08;;;;;;;3.78;2.45;;;;;;;28.22;39.90;101016.44;10349864;28;20226;-75
2021/07/18 11:47:14;;;;;;;2.92;2.58;;;;;;;29.65;38.13;101008.81;10349009;28;20195;-75
2021/07/18 11:52:20;;;;;;;3.28;2.55;;;;;;;29.51;37.40;101007.28;10349122;28;20221;-76
2021/07/18 11:57:23;;;;;;;3.38;2.25;;;;;;;30.17;36.89;101006.28;10349617;28;20226;-76
2021/07/18 12:02:26;;;;;;;3.33;2.72;;;;;;;28.71;37.88;101000.00;10349073;28;20306;-75
2021/07/18 12:07:31;;;;;;;3.17;2.72;;;;;;;28.89;39.16;101000.00;10346430;28;20214;-76
2021/07/18 12:12:35;;;;;;;4.35;2.58;;;;;;;28.32;37.38;100988.28;10350837;28;20692;-75
2021/07/18 12:17:38;;;;;;;4.10;2.65;;;;;;;29.11;38.06;100985.72;10346059;28;20230;-76
2021/07/18 12:22:43;;;;;;;3.85;2.78;;;;;;;30.52;35.81;100987.94;10385158;23;20541;-74
2021/07/18 12:27:45;;;;;;;3.03;2.40;;;;;;;30.38;36.06;100977.13;10368301;28;20203;-72
2021/07/18 12:32:48;;;;;;;3.55;2.40;;;;;;;29.79;38.32;100979.00;10384796;28;20214;-73
2021/07/18 12:37:53;;;;;;;3.13;2.80;;;;;;;29.68;36.73;100958.53;10384244;28;20281;-73
2021/07/18 12:42:55;;;;;;;4.03;2.42;;;;;;;30.27;35.30;100960.50;10385145;28;20237;-73
2021/07/18 12:48:00;;;;;;;3.13;2.75;;;;;;;29.61;35.95;100954.16;10373444;28;20664;-73
2021/07/18 12:53:11;;;;;;;5.45;2.75;;;;;;;30.76;35.63;100942.50;10391381;28;20211;-73
2021/07/18 12:58:21;;;;;;;5.18;2.60;;;;;;;31.24;34.81;100940.38;10391065;28;20619;-72
2021/07/18 13:03:24;;;;;;;3.40;2.50;;;;;;;29.42;35.94;100929.28;10390897;28;20223;-73
2021/07/18 13:08:37;;;;;;;4.20;2.40;;;;;;;30.90;34.56;100940.28;10390396;28;20183;-72
2021/07/18 13:13:40;;;;;;;2.65;2.42;;;;;;;29.63;36.79;100939.00;10390566;28;20553;-72
2021/07/18 13:18:43;;;;;;;3.20;2.55;;;;;;;31.64;34.55;100922.78;10390033;28;20241;-72
2021/07/18 13:23:47;;;;;;;4.78;2.78;;;;;;;32.10;32.77;100929.09;10372726;28;20313;-72
2021/07/18 13:28:50;;;;;;;4.50;2.75;;;;;;;32.11;33.34;100928.00;10390484;28;20190;-73
2021/07/18 13:33:53;;;;;;;4.68;2.63;;;;;;;31.63;33.66;100918.34;10390043;28;20210;-73
2021/07/18 13:39:07;;;;;;;4.22;2.55;;;;;;;31.04;34.77;100925.00;10389535;28;20213;-73
2021/07/18 13:44:10;;;;;;;3.55;2.95;;;;;;;30.10;35.83;100925.19;10387919;28;20581;-73
2021/07/18 13:49:13;;;;;;;3.10;2.40;;;;;;;30.01;35.62;100908.09;10389544;28;20668;-73
2021/07/18 13:54:18;;;;;;;4.38;2.72;;;;;;;30.15;35.09;100921.75;10388495;28;20211;-72
2021/07/18 13:59:21;;;;;;;4.57;2.70;;;;;;;29.98;36.13;100911.34;10388584;28;20221;-73
2021/07/18 14:04:24;;;;;;;5.03;2.90;;;;;;;28.46;37.64;100901.41;10389205;28;20211;-72
2021/07/18 14:09:29;;;;;;;3.53;2.63;;;;;;;30.54;35.27;100903.47;10389116;28;20186;-73
2021/07/18 14:14:32;;;;;;;3.58;2.67;;;;;;;30.64;36.27;100900.91;10389122;28;20210;-72
2021/07/18 14:19:34;;;;;;;3.97;2.55;;;;;;;30.84;35.86;100883.03;10388637;28;20332;-73
2021/07/18 14:24:40;;;;;;;3.20;2.63;;;;;;;32.50;33.00;100880.72;10387821;28;20218;-73
2021/07/18 14:29:43;;;;;;;5.65;2.97;;;;;;;33.26;32.82;100881.63;10388191;28;20193;-73
2021/07/18 14:34:46;;;;;;;4.68;2.67;;;;;;;34.29;31.79;100868.47;10387483;28;20214;-73
2021/07/18 14:39:50;;;;;;;5.53;2.88;;;;;;;33.32;31.76;100872.22;10388349;28;20320;-73
2021/07/18 14:44:53;;;;;;;2.97;2.45;;;;;;;32.20;33.20;100868.16;10370724;28;20233;-73
2021/07/18 14:49:56;;;;;;;2.85;2.40;;;;;;;31.91;34.01;100848.81;10387468;28;20195;-73
2021/07/18 14:55:03;;;;;;;4.30;2.70;;;;;;;30.85;34.41;100857.81;10393586;28;20411;-74
2021/07/18 15:00:08;;;;;;;3.75;2.53;;;;;;;30.90;34.77;100845.97;10387787;28;20293;-74
2021/07/18 15:05:13;;;;;;;4.95;2.33;;;;;;;30.16;35.69;100837.53;10387106;28;20321;-74
2021/07/18 15:10:18;;;;;;;3.15;2.20;;;;;;;28.59;38.48;100859.00;10385968;28;20198;-73
2021/07/18 15:15:21;;;;;;;5.03;2.20;;;;;;;28.32;39.43;100849.31;10368588;28;20222;-74
2021/07/18 15:20:25;;;;;;;4.10;2.83;;;;;;;28.01;40.74;100853.94;10386526;28;20214;-74
2021/07/18 15:25:29;;;;;;;6.72;2.60;;;;;;;28.66;39.84;100853.38;10386949;28;20280;-74
2021/07/18 15:30:32;;;;;;;3.78;2.75;;;;;;;28.60;39.25;100841.31;10386743;28;20182;-74
2021/07/18 15:35:35;;;;;;;2.80;2.28;;;;;;;30.32;37.31;100831.22;10385669;28;20698;-73
2021/07/18 15:40:39;;;;;;;4.63;2.38;;;;;;;31.54;35.05;100827.16;10386187;28;20198;-74
2021/07/18 15:45:42;;;;;;;2.63;2.20;;;;;;;32.63;32.33;100833.91;10384346;28;20214;-74
2021/07/18 15:50:45;;;;;;;4.10;2.30;;;;;;;32.95;33.45;100846.25;10386213;28;20210;-75
2021/07/18 15:55:50;;;;;;;3.47;2.25;;;;;;;31.98;33.72;100834.72;10385557;28;20218;-74
2021/07/18 16:00:53;;;;;;;3.72;1.92;;;;;;;29.19;37.06;100833.28;10385880;28;20194;-73
2021/07/18 16:05:57;;;;;;;4.93;2.20;;;;;;;27.82;40.15;100831.78;10385270;28;20659;-74
2021/07/18 16:11:01;;;;;;;3.72;2.05;;;;;;;28.66;39.73;100828.50;10385756;28;20223;-74
2021/07/18 16:16:04;;;;;;;3.83;2.33;;;;;;;30.97;35.04;100812.56;10385381;28;20706;-74
2021/07/18 16:21:07;;;;;;;3.15;1.83;;;;;;;29.91;36.61;100824.78;10390355;28;20237;-74
2021/07/18 16:26:11;;;;;;;2.47;2.28;;;;;;;26.95;41.43;100819.78;10392109;28;20221;-74
2021/07/18 16:31:14;;;;;;;3.05;2.00;;;;;;;27.22;41.60;100823.19;10392873;28;20197;-73
2021/07/18 16:36:17;;;;;;;4.40;2.50;;;;;;;26.75;42.36;100814.38;10374408;28;20583;-74
2021/07/18 16:41:37;;;;;;;2.53;1.90;;;;;;;28.88;39.44;100804.81;10392343;28;20222;-74
2021/07/18 16:46:40;;;;;;;3.00;2.10;;;;;;;31.82;34.56;100803.16;10390592;28;20215;-75
2021/07/18 16:51:44;;;;;;;4.18;2.17;;;;;;;34.18;30.23;100803.47;10392509;28;20194;-74
2021/07/18 16:56:48;;;;;;;5.35;1.98;;;;;;;35.69;28.60;100793.91;10391426;28;20298;-74
2021/07/18 17:01:51;;;;;;;4.43;1.95;;;;;;;36.14;27.26;100794.88;10391930;28;20197;-74
2021/07/18 17:06:56;;;;;;;2.88;2.13;;;;;;;36.79;27.05;100798.44;10391216;28;20268;-75
2021/07/18 17:12:01;;;;;;;2.33;1.95;;;;;;;34.89;29.50;100794.47;10373643;28;20647;-75
2021/07/18 17:17:04;;;;;;;3.17;2.33;;;;;;;34.63;29.67;100790.78;10391634;28;20210;-74
2021/07/18 17:22:08;;;;;;;2.78;1.90;;;;;;;35.36;29.07;100795.34;10391049;28;20244;-75
2021/07/18 17:27:13;;;;;;;2.65;2.03;;;;;;;35.02;29.97;100787.50;10390436;28;20277;-75
2021/07/18 17:32:17;;;;;;;2.63;1.92;;;;;;;36.38;27.73;100783.88;10389645;28;20216;-74
2021/07/18 17:37:20;;;;;;;1.92;1.73;;;;;;;36.90;27.08;100790.84;10390526;28;20297;-74
2021/07/18 17:42:24;;;;;;;2.42;2.03;;;;;;;36.08;27.74;100784.84;10390345;28;20210;-74
2021/07/18 17:47:27;;;;;;;2.50;1.90;;;;;;;33.39;31.10;100791.25;10389765;28;20556;-74
2021/07/18 17:52:30;;;;;;;3.95;2.10;;;;;;;32.32;32.57;100782.69;10390176;28;20206;-74
2021/07/18 17:57:35;;;;;;;4.10;2.00;;;;;;;29.00;37.98;100796.53;10389465;28;20241;-74
2021/07/18 18:02:38;;;;;;;2.47;2.13;;;;;;;26.48;43.83;100799.91;10389950;28;20592;-74
2021/07/18 18:07:42;;;;;;;2.42;2.00;;;;;;;25.77;45.36;100807.09;10389270;28;20183;-74
2021/07/18 18:12:46;;;;;;;2.55;2.10;;;;;;;25.46;46.24;100817.91;10389669;28;20557;-74
2021/07/18 18:17:50;;;;;;;2.63;2.05;;;;;;;25.27;46.76;100816.88;10389352;28;20293;-74
2021/07/18 18:22:53;;;;;;;4.03;2.38;;;;;;;24.92;47.51;100812.34;10389364;28;20233;-75
2021/07/18 18:27:57;;;;;;;4.20;2.40;;;;;;;24.83;48.53;100826.50;10389210;28;20185;-75
2021/07/18 18:33:02;;;;;;;3.25;2.40;;;;;;;24.42;49.71;100820.03;10389006;28;20210;-74
2021/07/18 18:38:05;;;;;;;8.15;2.83;;;;;;;24.42;49.67;100816.44;10388675;28;20252;-75
2021/07/18 18:43:09;;;;;;;3.95;2.80;;;;;;;24.27;50.45;100820.16;10388196;28;20687;-74
2021/07/18 18:48:12;;;;;;;7.32;3.10;;;;;;;24.15;50.95;100818.19;10388039;28;20190;-75
2021/07/18 18:53:17;;;;;;;5.32;3.20;;;;;;;24.01;51.69;100823.63;10388547;28;20675;-74
2021/07/18 18:58:21;;;;;;;8.18;3.05;;;;;;;23.76;52.38;100836.09;10387382;28;20226;-74
2021/07/18 19:03:24;;;;;;;13.20;3.55;;;;;;;23.63;52.95;100837.69;10387879;28;20210;-74
2021/07/18 19:08:28;;;;;;;5.38;3.15;;;;;;;23.49;53.40;100843.28;10387379;28;20217;-75
2021/07/18 19:13:32;;;;;;;4.65;3.25;;;;;;;23.38;53.87;100847.41;10387669;28;20551;-74
2021/07/18 19:18:36;;;;;;;9.07;4.13;;;;;;;23.12;54.13;100858.94;10387018;28;20206;-74
2021/07/18 19:23:39;;;;;;;7.63;3.85;;;;;;;22.75;54.01;100867.16;10387278;28;20222;-74
2021/07/18 19:28:43;;;;;;;5.05;4.00;;;;;;;22.47;54.50;100874.41;10387401;28;20193;-75
2021/07/18 19:33:46;;;;;;;5.63;3.42;;;;;;;22.10;55.37;100884.38;10387662;28;20593;-75
2021/07/18 19:38:49;;;;;;;8.10;3.42;;;;;;;21.94;55.41;100890.03;10387164;28;20210;-75
2021/07/18 19:43:57;;;;;;;5.07;3.45;;;;;;;21.86;55.03;100899.19;10386949;28;20214;-74
2021/07/18 19:49:00;;;;;;;6.90;3.22;;;;;;;21.96;54.71;100894.28;10386615;28;20687;-74
2021/07/18 19:54:03;;;;;;;7.25;3.67;;;;;;;21.64;54.90;100918.16;10388090;28;20217;-74
2021/07/18 19:59:08;;;;;;;5.97;3.63;;;;;;;21.74;54.62;100917.88;10394019;28;20225;-74
2021/07/18 20:04:11;;;;;;;4.40;3.22;;;;;;;21.65;56.38;100930.78;10393813;28;20329;-74
2021/07/18 20:09:14;;;;;;;6.18;4.00;;;;;;;21.37;58.47;100935.97;10393654;28;20187;-74
2021/07/18 20:14:18;;;;;;;6.63;3.83;;;;;;;21.15;59.25;100942.28;10393084;28;20217;-74
2021/07/18 20:19:21;;;;;;;9.25;4.38;;;;;;;21.07;59.23;100942.31;10393176;28;20289;-74
2021/07/18 20:24:24;;;;;;;8.95;3.67;;;;;;;20.82;59.87;100949.78;10392513;28;20593;-74
2021/07/18 20:29:28;;;;;;;8.65;4.45;;;;;;;20.56;60.17;100949.00;10393523;28;20183;-74
2021/07/18 20:34:31;;;;;;;10.70;4.68;;;;;;;20.52;60.45;100965.94;10392017;28;20272;-74
2021/07/18 20:39:34;;;;;;;7.50;4.47;;;;;;;20.43;60.23;100966.97;10392254;28;20213;-74
2021/07/18 20:44:38;;;;;;;9.52;4.50;;;;;;;20.39;60.20;100966.47;10391877;28;20218;-74
2021/07/18 20:49:42;;;;;;;6.57;3.95;;;;;;;20.31;59.85;100982.84;10392180;28;20183;-74
2021/07/18 20:54:45;;;;;;;8.68;4.97;;;;;;;20.13;59.67;100980.31;10373915;28;20223;-74
2021/07/18 20:59:49;;;;;;;10.77;4.65;;;;;;;20.05;60.03;100991.22;10390607;28;20227;-74
2021/07/18 21:04:52;;;;;;;9.63;5.00;;;;;;;19.99;59.40;100989.16;10391240;28;20210;-74
2021/07/18 21:09:55;;;;;;;9.70;5.20;;;;;;;19.73;59.98;100987.47;10391505;28;20273;-74
2021/07/18 21:14:59;;;;;;;9.68;4.60;;;;;;;19.58;60.12;100995.50;10390992;28;20401;-74
2021/07/18 21:20:03;;;;;;;7.97;5.03;;;;;;;19.21;61.13;100985.00;10390968;28;20218;-74
2021/07/18 21:25:07;;;;;;;7.07;4.72;;;;;;;19.14;61.13;100992.09;10390738;28;20226;-75
2021/07/18 21:30:13;;;;;;;8.63;5.07;;;;;;;18.97;61.81;100991.22;10390844;28;20686;-74
2021/07/18 21:35:16;;;;;;;8.13;5.00;;;;;;;18.95;61.65;100990.50;10390287;28;20695;-74
2021/07/18 21:40:19;;;;;;;9.65;5.10;;;;;;;18.79;62.04;100997.63;10390435;28;20222;-74
2021/07/18 21:45:24;;;;;;;9.27;5.07;;;;;;;18.58;62.34;100997.97;10390606;28;20207;-75
2021/07/18 21:50:27;;;;;;;9.55;5.07;;;;;;;18.53;62.34;101004.94;10390336;28;20190;-74
2021/07/18 21:55:30;;;;;;;10.02;5.55;;;;;;;18.54;62.52;101003.91;10389539;28;20225;-74
2021/07/18 22:00:35;;;;;;;9.88;5.20;;;;;;;18.46;62.43;101001.16;10389853;28;20214;-74
2021/07/18 22:05:39;;;;;;;11.68;5.35;;;;;;;18.29;62.10;100997.47;10386764;28;20571;-74
2021/07/18 22:10:43;;;;;;;9.80;5.35;;;;;;;18.17;61.65;101001.47;10388034;28;20682;-74
2021/07/18 22:15:48;;;;;;;8.93;5.55;;;;;;;18.12;61.68;101001.94;10387258;28;20770;-74
2021/07/18 22:20:52;;;;;;;9.57;5.45;;;;;;;17.97;61.54;101007.09;10387988;28;20206;-74
2021/07/18 22:26:48;;;;;;;9.57;5.60;;;;;;;17.96;61.42;101012.66;10387786;28;20245;-74
2021/07/18 22:31:52;;;;;;;9.23;5.90;;;;;;;17.97;61.13;101014.38;10388614;28;20186;-74
2021/07/18 22:36:55;;;;;;;10.32;5.90;;;;;;;17.86;61.55;101005.47;10369665;28;20230;-74
2021/07/18 22:41:58;;;;;;;10.65;5.75;;;;;;;17.84;61.60;100999.31;10387346;28;20279;-74
2021/07/18 22:47:02;;;;;;;10.30;5.30;;;;;;;17.68;61.25;101001.91;10386921;28;20219;-74
2021/07/18 22:52:06;;;;;;;10.60;6.32;;;;;;;17.60;61.65;101007.25;10387082;28;20194;-74
2021/07/18 22:57:09;;;;;;;9.32;5.72;;;;;;;17.55;61.44;101006.84;10386775;28;20190;-74
2021/07/18 23:02:14;;;;;;;12.60;6.15;;;;;;;17.53;61.28;101003.47;10386578;28;20225;-74
2021/07/18 23:07:17;;;;;;;12.75;7.05;;;;;;;17.44;61.57;101010.66;10386127;28;20203;-74
2021/07/18 23:12:20;;;;;;;11.35;6.30;;;;;;;17.37;61.53;101004.16;10386331;28;20589;-74